Terminal Aerodrome Forecast
Issued by NWS

Home | Current Version | Previous Version | Text Only | Print | Product List | Glossary On
Versions: 1 2 3 4 5 6 7 8 9 10 11 12 13 14 15 16 17 18 19 20 21
000
FTUS43 KSGF 270500
TAFJLN
TAF
KJLN 270520Z 2706/2806 VRB04KT P6SM OVC100
     FM270800 03005KT P6SM OVC040
      TEMPO 2710/2713 -RASN OVC025
     FM271400 01008KT P6SM BKN030
     FM271600 01008G15KT P6SM BKN250
     FM280100 VRB04KT P6SM OVC100=

USA.gov is the U.S. government's official web portal to all federal, state and local government web resources and services.